createdAt,value
2019-04-03T00:00:18.256Z,67.00
2019-04-03T00:02:49.318Z,67.60
2019-04-03T00:05:20.179Z,66.80
2019-04-03T00:07:55.298Z,66.30
2019-04-03T00:10:26.414Z,66.30
2019-04-03T00:12:59.910Z,66.00
2019-04-03T00:15:30.870Z,65.90
2019-04-03T00:18:03.275Z,67.00
2019-04-03T00:20:34.378Z,66.30
2019-04-03T00:23:05.394Z,66.20
2019-04-03T00:25:37.749Z,66.30
2019-04-03T00:28:19.298Z,66.30
2019-04-03T00:30:52.437Z,66.60
2019-04-03T00:33:26.695Z,65.80
2019-04-03T00:35:57.962Z,66.30
2019-04-03T00:38:29.178Z,65.90
2019-04-03T00:41:00.235Z,65.90
2019-04-03T00:43:33.730Z,65.60
2019-04-03T00:46:05.213Z,65.40
2019-04-03T00:48:36.130Z,65.50
2019-04-03T00:57:17.555Z,65.40
2019-04-03T00:59:50.819Z,65.40
2019-04-03T01:02:22.181Z,64.90
2019-04-03T01:04:53.019Z,64.70
2019-04-03T01:07:24.059Z,64.40
2019-04-03T01:09:55.105Z,64.60
2019-04-03T01:12:26.224Z,64.20
2019-04-03T01:14:57.348Z,64.20
2019-04-03T01:17:30.736Z,64.00
2019-04-03T01:20:02.511Z,63.90
2019-04-03T01:22:33.855Z,64.50
2019-04-03T01:25:08.106Z,63.60
2019-04-03T01:27:41.312Z,63.60
2019-04-03T01:30:13.488Z,63.40
2019-04-03T01:32:45.954Z,63.10
2019-04-03T01:35:19.587Z,63.00
2019-04-03T01:37:51.948Z,62.90
2019-04-03T01:40:26.570Z,62.70
2019-04-03T01:43:11.269Z,62.70
2019-04-03T01:45:47.620Z,62.50
2019-04-03T01:48:21.174Z,62.30
2019-04-03T01:50:53.970Z,62.20
2019-04-03T01:53:27.475Z,62.30
2019-04-03T01:55:59.376Z,62.20
2019-04-03T01:58:31.049Z,62.10
2019-04-03T02:01:08.063Z,62.10
2019-04-03T02:03:41.695Z,62.00
2019-04-03T02:06:14.122Z,61.90
2019-04-03T02:08:45.566Z,61.80
2019-04-03T02:11:18.452Z,61.60
2019-04-03T02:13:54.762Z,61.50
2019-04-03T02:16:25.887Z,61.50
2019-04-03T02:18:57.041Z,61.20
2019-04-03T02:21:35.136Z,61.00
2019-04-03T02:24:06.193Z,61.00
2019-04-03T02:33:17.829Z,60.50
2019-04-03T02:35:54.634Z,60.20
2019-04-03T02:38:25.795Z,60.60
2019-04-03T02:41:03.290Z,60.40
2019-04-03T02:43:34.617Z,60.10
2019-04-03T02:46:05.886Z,59.90
2019-04-03T02:48:38.293Z,59.70
2019-04-03T02:51:20.465Z,59.40
2019-04-03T02:53:52.227Z,59.20
2019-04-03T02:56:23.766Z,59.20
2019-04-03T02:58:55.167Z,59.40
2019-04-03T03:01:27.013Z,59.50
2019-04-03T03:04:08.692Z,59.20
2019-04-03T03:06:40.298Z,58.70
2019-04-03T03:09:13.511Z,58.20
2019-04-03T03:11:45.589Z,58.50
2019-04-03T03:27:41.665Z,57.80
2019-04-03T03:30:34.010Z,57.70
2019-04-03T03:32:48.482Z,57.20
2019-04-03T03:42:34.341Z,57.40
2019-04-03T03:45:10.207Z,55.20
2019-04-03T03:47:42.203Z,56.10
2019-04-03T03:50:14.352Z,55.80
2019-04-03T03:52:45.322Z,56.60
2019-04-03T03:55:16.358Z,56.30
2019-04-03T03:57:48.719Z,55.10
2019-04-03T04:00:22.545Z,55.80
2019-04-03T04:02:53.059Z,56.10
2019-04-03T04:05:24.159Z,55.00
2019-04-03T04:07:55.622Z,53.50
2019-04-03T04:10:35.470Z,55.00
2019-04-03T04:13:03.714Z,54.80
2019-04-03T04:15:39.165Z,54.50
2019-04-03T04:18:13.790Z,54.10
2019-04-03T04:20:46.256Z,54.50
2019-04-03T04:23:17.238Z,54.60
2019-04-03T04:25:50.443Z,55.10
2019-04-03T04:28:22.465Z,55.20
2019-04-03T04:30:53.991Z,54.50
2019-04-03T04:33:24.778Z,54.30
2019-04-03T04:35:55.849Z,54.20
2019-04-03T04:38:28.507Z,54.70
2019-04-03T04:41:01.840Z,54.10
2019-04-03T04:43:32.580Z,55.10
2019-04-03T04:46:03.590Z,53.20
2019-04-03T04:48:34.916Z,53.50
2019-04-03T04:51:06.323Z,53.80
2019-04-03T04:53:37.310Z,53.40
2019-04-03T04:56:08.710Z,52.30
2019-04-03T04:58:42.543Z,52.80
2019-04-03T05:01:17.037Z,54.00
2019-04-03T05:10:03.934Z,53.50
2019-04-03T05:12:39.132Z,53.90
2019-04-03T05:15:10.967Z,53.80
2019-04-03T05:17:41.758Z,54.00
2019-04-03T05:20:13.736Z,54.10
2019-04-03T05:22:44.950Z,53.70
2019-04-03T05:25:15.880Z,54.00
2019-04-03T05:27:46.663Z,53.50
2019-04-03T05:30:20.773Z,53.60
2019-04-03T05:32:53.095Z,53.20
2019-04-03T05:35:24.105Z,53.60
2019-04-03T05:37:56.167Z,53.30
2019-04-03T05:40:28.076Z,53.40
2019-04-03T05:43:00.143Z,52.20
2019-04-03T05:45:34.577Z,53.70
2019-04-03T05:48:05.031Z,53.80
2019-04-03T05:50:37.668Z,51.70
2019-04-03T05:53:08.756Z,50.70
2019-04-03T05:55:41.003Z,52.00
2019-04-03T05:58:12.193Z,51.10
2019-04-03T06:00:44.211Z,51.00
2019-04-03T06:03:15.910Z,52.00
2019-04-03T06:05:48.907Z,51.90
2019-04-03T06:08:20.721Z,51.50
2019-04-03T06:10:52.921Z,51.20
2019-04-03T06:13:23.787Z,50.40
2019-04-03T06:15:58.101Z,51.00
2019-04-03T06:18:32.448Z,49.00
2019-04-03T06:21:03.545Z,50.50
2019-04-03T06:23:34.656Z,51.40
2019-04-03T06:26:05.659Z,50.70
2019-04-03T06:28:36.682Z,51.00
2019-04-03T06:31:08.674Z,51.20
2019-04-03T06:33:40.006Z,51.60
2019-04-03T06:36:13.676Z,51.40
2019-04-03T06:38:46.403Z,52.00
2019-04-03T06:41:21.699Z,51.10
2019-04-03T06:43:55.408Z,50.60
2019-04-03T06:46:28.916Z,50.60
2019-04-03T06:48:59.139Z,50.50
2019-04-03T06:51:30.080Z,51.10
2019-04-03T06:54:02.561Z,48.40
2019-04-03T06:56:36.427Z,48.60
2019-04-03T06:59:09.452Z,47.40
2019-04-03T07:01:40.674Z,48.90
2019-04-03T07:04:12.050Z,48.10
2019-04-03T07:06:45.229Z,49.10
2019-04-03T07:09:22.779Z,49.30
2019-04-03T07:11:48.926Z,50.30
2019-04-03T07:14:20.098Z,50.90
2019-04-03T07:16:51.391Z,51.40
2019-04-03T07:19:25.316Z,51.60
2019-04-03T07:21:56.427Z,52.10
2019-04-03T07:24:28.126Z,52.60
2019-04-03T07:26:58.992Z,53.60
2019-04-03T07:29:44.424Z,53.50
2019-04-03T07:38:53.621Z,57.40
2019-04-03T07:41:28.688Z,57.40
2019-04-03T07:43:59.346Z,58.90
2019-04-03T07:46:33.259Z,58.10
2019-04-03T07:49:13.662Z,59.20
2019-04-03T07:51:47.014Z,58.10
2019-04-03T07:54:26.595Z,59.10
2019-04-03T07:56:59.691Z,60.00
2019-04-03T07:59:38.019Z,59.00
2019-04-03T08:02:07.509Z,59.10
2019-04-03T08:04:38.930Z,60.20
2019-04-03T08:07:10.060Z,59.40
2019-04-03T08:09:43.032Z,61.10
2019-04-03T08:12:14.023Z,59.70
2019-04-03T08:14:45.382Z,60.80
2019-04-03T08:17:18.094Z,62.30
2019-04-03T08:19:48.942Z,62.50
2019-04-03T08:22:20.102Z,62.50
2019-04-03T08:24:53.619Z,67.00
2019-04-03T08:27:35.749Z,64.70
2019-04-03T08:30:15.177Z,63.60
2019-04-03T08:32:47.339Z,64.60
2019-04-03T08:35:21.778Z,68.00
2019-04-03T08:37:51.299Z,67.90
2019-04-03T08:40:23.421Z,67.50
2019-04-03T08:42:59.289Z,65.80
2019-04-03T08:45:27.456Z,69.10
2019-04-03T08:48:05.952Z,69.50
2019-04-03T08:50:58.017Z,69.50
2019-04-03T08:53:29.255Z,67.40
2019-04-03T08:56:00.862Z,69.40
2019-04-03T08:58:33.221Z,70.50
2019-04-03T09:01:10.737Z,70.10
2019-04-03T09:03:49.795Z,70.90
2019-04-03T09:06:22.393Z,69.60
2019-04-03T09:08:59.243Z,69.70
2019-04-03T09:11:31.851Z,70.80
2019-04-03T09:14:02.951Z,69.00
2019-04-03T09:23:58.371Z,66.80
2019-04-03T09:26:29.420Z,68.10
2019-04-03T09:29:12.965Z,69.80
2019-04-03T09:31:43.238Z,68.00
2019-04-03T09:34:15.057Z,65.20
2019-04-03T09:36:46.447Z,65.20
2019-04-03T09:39:20.435Z,66.60
2019-04-03T09:41:51.659Z,65.00
2019-04-03T09:44:25.473Z,66.50
2019-04-03T09:46:56.769Z,64.70
2019-04-03T09:49:29.897Z,65.20
2019-04-03T09:52:00.986Z,66.20
2019-04-03T09:54:35.733Z,67.50
2019-04-03T09:57:07.822Z,65.70
2019-04-03T09:59:43.147Z,65.40
2019-04-03T10:02:19.208Z,65.70
2019-04-03T10:04:50.056Z,65.70
2019-04-03T10:14:27.134Z,65.70
2019-04-03T10:16:57.689Z,65.50
2019-04-03T10:19:29.531Z,65.20
2019-04-03T10:22:00.808Z,65.10
2019-04-03T10:24:34.048Z,64.90
2019-04-03T10:27:05.147Z,64.80
2019-04-03T10:29:36.492Z,64.00
2019-04-03T10:32:07.361Z,63.70
2019-04-03T10:34:39.519Z,63.50
2019-04-03T10:37:12.211Z,63.00
2019-04-03T10:39:46.372Z,62.60
2019-04-03T10:42:18.067Z,62.30
2019-04-03T10:44:49.571Z,62.20
2019-04-03T10:47:24.696Z,62.50
2019-04-03T10:49:52.850Z,62.50
2019-04-03T10:52:24.786Z,62.80
2019-04-03T10:54:57.294Z,62.90
2019-04-03T10:57:28.571Z,62.40
2019-04-03T10:59:59.582Z,62.80
2019-04-03T11:02:33.429Z,62.70
2019-04-03T11:05:05.047Z,62.70
2019-04-03T11:07:40.131Z,62.80
2019-04-03T11:10:11.997Z,63.00
2019-04-03T11:12:45.977Z,63.20
2019-04-03T11:15:18.204Z,63.20
2019-04-03T11:17:50.040Z,63.50
2019-04-03T11:20:21.763Z,63.30
2019-04-03T11:23:04.070Z,62.80
2019-04-03T11:25:29.011Z,63.10
2019-04-03T11:28:05.122Z,62.70
2019-04-03T11:30:34.245Z,63.20
2019-04-03T11:33:05.927Z,64.70
2019-04-03T11:35:37.133Z,65.70
2019-04-03T11:38:14.142Z,64.70
2019-04-03T11:40:43.034Z,64.90
2019-04-03T11:43:14.308Z,64.90
2019-04-03T11:45:46.225Z,64.90
2019-04-03T11:48:17.490Z,63.70
2019-04-03T11:50:49.166Z,64.90
2019-04-03T11:53:20.464Z,64.60
2019-04-03T11:55:51.359Z,64.70
2019-04-03T11:58:26.799Z,65.00
2019-04-03T12:00:57.672Z,64.30
2019-04-03T12:03:28.824Z,64.00
2019-04-03T12:05:59.773Z,63.50
2019-04-03T12:08:35.930Z,64.20
2019-04-03T12:11:07.460Z,64.60
2019-04-03T12:13:38.598Z,64.50
2019-04-03T12:16:09.490Z,64.20
2019-04-03T12:18:40.500Z,64.00
2019-04-03T12:21:13.964Z,64.50
2019-04-03T12:23:44.195Z,64.60
2019-04-03T12:26:15.478Z,64.60
2019-04-03T12:28:46.892Z,64.30
2019-04-03T12:31:19.279Z,64.50
2019-04-03T12:33:56.044Z,64.00
2019-04-03T12:36:25.486Z,63.90
2019-04-03T12:38:56.884Z,64.50
2019-04-03T12:41:29.073Z,64.90
2019-04-03T12:43:59.779Z,66.30
2019-04-03T12:46:33.445Z,66.30
2019-04-03T12:49:06.582Z,66.30
2019-04-03T12:51:39.756Z,66.50
2019-04-03T12:54:13.468Z,66.20
2019-04-03T12:56:45.241Z,66.40
2019-04-03T12:59:16.151Z,65.50
2019-04-03T13:01:49.238Z,66.30
2019-04-03T13:04:21.109Z,66.00
2019-04-03T13:06:52.228Z,65.20
2019-04-03T13:09:23.103Z,66.10
2019-04-03T13:11:53.995Z,64.70
2019-04-03T13:14:27.160Z,65.80
2019-04-03T13:16:59.475Z,64.90
2019-04-03T13:19:30.801Z,65.50
2019-04-03T13:22:01.831Z,66.10
2019-04-03T13:24:32.914Z,66.20
2019-04-03T13:27:04.373Z,66.00
2019-04-03T13:29:38.307Z,66.80
2019-04-03T13:32:08.752Z,65.60
2019-04-03T13:34:41.506Z,66.10
2019-04-03T13:37:12.113Z,67.50
2019-04-03T13:39:43.004Z,66.10
2019-04-03T13:42:14.654Z,66.90
2019-04-03T13:44:45.673Z,65.30
2019-04-03T13:47:16.451Z,65.50
2019-04-03T13:49:50.133Z,65.90
2019-04-03T13:52:20.155Z,66.20
2019-04-03T13:54:52.310Z,67.80
2019-04-03T13:57:24.085Z,67.60
2019-04-03T13:59:58.460Z,68.30
2019-04-03T14:02:27.738Z,69.50
2019-04-03T14:04:58.851Z,69.40
2019-04-03T14:07:31.618Z,68.80
2019-04-03T14:10:03.266Z,69.60
2019-04-03T14:12:36.637Z,68.80
2019-04-03T14:15:08.522Z,68.30
2019-04-03T14:17:39.746Z,67.80
2019-04-03T14:20:12.000Z,66.80
2019-04-03T14:22:43.220Z,67.60
2019-04-03T14:25:20.982Z,68.50
2019-04-03T14:27:47.718Z,70.00
2019-04-03T14:30:20.295Z,68.30
2019-04-03T14:32:53.394Z,67.00
2019-04-03T14:35:45.427Z,67.00
2019-04-03T14:37:59.450Z,67.80
2019-04-03T14:40:28.576Z,67.90
2019-04-03T14:43:00.199Z,66.90
2019-04-03T14:45:32.464Z,67.10
2019-04-03T14:48:03.262Z,66.70
2019-04-03T14:50:36.503Z,66.80
2019-04-03T14:53:07.283Z,67.30
2019-04-03T14:55:47.211Z,67.70
2019-04-03T14:58:11.064Z,70.20
2019-04-03T15:00:42.341Z,69.40
2019-04-03T15:03:13.026Z,69.00
2019-04-03T15:05:47.307Z,70.10
2019-04-03T15:08:20.227Z,70.30
2019-04-03T15:10:52.166Z,69.50
2019-04-03T15:13:23.657Z,68.60
2019-04-03T15:15:54.559Z,69.60
2019-04-03T15:18:25.809Z,67.80
2019-04-03T15:21:00.128Z,68.60
2019-04-03T15:23:31.092Z,69.30
2019-04-03T15:26:06.020Z,68.00
2019-04-03T15:28:36.557Z,67.80
2019-04-03T15:31:07.707Z,69.10
2019-04-03T15:33:40.104Z,68.90
2019-04-03T15:36:12.295Z,69.20
2019-04-03T15:38:45.294Z,69.20
2019-04-03T15:41:16.180Z,69.10
2019-04-03T15:43:51.258Z,68.50
2019-04-03T15:46:22.275Z,68.60
2019-04-03T15:48:55.269Z,69.20
2019-04-03T15:51:26.366Z,68.30
2019-04-03T15:53:59.625Z,67.70
2019-04-03T15:56:30.035Z,67.80
2019-04-03T15:59:01.387Z,67.20
2019-04-03T16:01:32.356Z,67.40
2019-04-03T16:04:03.419Z,68.90
2019-04-03T16:06:35.937Z,68.00
2019-04-03T16:09:09.204Z,67.30
2019-04-03T16:11:40.101Z,68.50
2019-04-03T16:14:11.463Z,68.20
2019-04-03T16:16:42.728Z,69.10
2019-04-03T16:19:13.977Z,67.80
2019-04-03T16:21:44.963Z,68.90
2019-04-03T16:24:16.040Z,69.90
2019-04-03T16:26:47.116Z,68.50
2019-04-03T16:29:17.981Z,67.80
2019-04-03T16:31:51.369Z,69.10
2019-04-03T16:34:21.826Z,70.70
2019-04-03T16:36:53.049Z,70.00
2019-04-03T16:39:23.994Z,68.20
2019-04-03T16:41:55.069Z,67.80
2019-04-03T16:44:26.889Z,68.70
2019-04-03T16:46:58.583Z,70.20
2019-04-03T16:49:30.624Z,69.20
2019-04-03T16:52:03.481Z,71.60
2019-04-03T16:54:34.318Z,71.20
2019-04-03T16:57:05.707Z,71.50
2019-04-03T16:59:37.297Z,72.20
2019-04-03T17:02:08.661Z,71.70
2019-04-03T17:04:39.897Z,72.40
2019-04-03T17:07:10.723Z,72.10
2019-04-03T17:09:41.886Z,70.30
2019-04-03T17:12:13.007Z,69.40
2019-04-03T17:14:44.117Z,71.80
2019-04-03T17:17:15.059Z,71.50
2019-04-03T17:19:49.908Z,73.00
2019-04-03T17:22:18.930Z,70.40
2019-04-03T17:24:53.826Z,71.40
2019-04-03T17:27:22.071Z,71.60
2019-04-03T17:29:53.284Z,71.60
2019-04-03T17:32:24.350Z,71.40
2019-04-03T17:34:55.494Z,72.70
2019-04-03T17:37:29.368Z,70.30
2019-04-03T17:39:59.074Z,71.60
2019-04-03T17:42:32.406Z,72.20
2019-04-03T17:45:04.230Z,72.60
2019-04-03T17:47:35.444Z,72.90
2019-04-03T17:50:08.296Z,71.70
2019-04-03T17:52:39.339Z,72.60
2019-04-03T17:55:11.815Z,70.70
2019-04-03T17:57:44.795Z,71.30
2019-04-03T18:00:20.622Z,70.10
2019-04-03T18:02:51.036Z,69.60
2019-04-03T18:05:22.091Z,71.00
2019-04-03T18:07:52.944Z,69.90
2019-04-03T18:10:24.301Z,69.90
2019-04-03T18:12:55.229Z,70.00
2019-04-03T18:15:27.541Z,69.60
2019-04-03T18:17:58.325Z,70.60
2019-04-03T18:20:29.453Z,71.00
2019-04-03T18:23:00.468Z,70.20
2019-04-03T18:25:31.317Z,70.00
2019-04-03T18:28:04.678Z,70.50
2019-04-03T18:30:34.606Z,71.10
2019-04-03T18:33:06.118Z,71.90
2019-04-03T18:35:37.304Z,73.40
2019-04-03T18:38:08.663Z,73.20
2019-04-03T18:40:39.724Z,73.20
2019-04-03T18:43:10.773Z,73.70
2019-04-03T18:45:41.704Z,73.90
2019-04-03T18:48:12.626Z,74.10
2019-04-03T18:50:43.689Z,73.60
2019-04-03T18:53:14.868Z,73.70
2019-04-03T18:55:45.880Z,74.60
2019-04-03T18:58:16.642Z,74.50
2019-04-03T19:00:47.624Z,74.40
2019-04-03T19:03:18.856Z,75.00
2019-04-03T19:05:49.692Z,75.00
2019-04-03T19:08:20.504Z,75.30
2019-04-03T19:11:01.512Z,73.00
2019-04-03T19:13:23.519Z,73.50
2019-04-03T19:15:54.701Z,71.60
2019-04-03T19:18:25.596Z,73.10
2019-04-03T19:20:56.366Z,73.90
2019-04-03T19:23:27.666Z,74.80
2019-04-03T19:25:59.996Z,75.10
2019-04-03T19:28:34.385Z,73.40
2019-04-03T19:31:04.094Z,73.00
2019-04-03T19:33:35.167Z,71.80
2019-04-03T19:36:06.005Z,71.00
2019-04-03T19:38:37.134Z,71.00
2019-04-03T19:41:08.297Z,70.90
2019-04-03T19:43:39.094Z,72.50
2019-04-03T19:46:10.332Z,71.10
2019-04-03T19:48:41.218Z,71.00
2019-04-03T19:51:12.217Z,71.00
2019-04-03T19:53:44.621Z,72.40
2019-04-03T19:56:16.055Z,71.60
2019-04-03T19:58:47.094Z,73.80
2019-04-03T20:01:18.077Z,72.40
2019-04-03T20:03:49.003Z,73.40
2019-04-03T20:06:22.620Z,72.50
2019-04-03T20:08:52.675Z,72.10
2019-04-03T20:11:23.478Z,71.70
2019-04-03T20:13:54.541Z,72.10
2019-04-03T20:16:25.585Z,72.30
2019-04-03T20:18:57.467Z,72.50
2019-04-03T20:21:28.596Z,72.40
2019-04-03T20:23:59.421Z,73.50
2019-04-03T20:26:30.554Z,72.10
2019-04-03T20:29:02.303Z,72.00
2019-04-03T20:31:35.431Z,73.60
2019-04-03T20:34:06.224Z,75.50
2019-04-03T20:36:37.219Z,76.20
2019-04-03T20:39:10.373Z,76.90
2019-04-03T20:41:41.421Z,75.30
2019-04-03T20:44:12.785Z,77.40
2019-04-03T20:46:44.149Z,78.10
2019-04-03T20:49:16.447Z,75.00
2019-04-03T20:51:48.725Z,74.20
2019-04-03T20:54:21.389Z,73.70
2019-04-03T20:56:58.078Z,76.10
2019-04-03T20:59:26.128Z,78.50
2019-04-03T21:01:57.323Z,79.10
2019-04-03T21:04:28.313Z,78.10
2019-04-03T21:06:59.221Z,78.40
2019-04-03T21:09:30.580Z,79.20
2019-04-03T21:12:03.102Z,78.80
2019-04-03T21:14:34.288Z,79.00
2019-04-03T21:17:04.986Z,80.00
2019-04-03T21:19:36.082Z,79.70
2019-04-03T21:22:07.069Z,79.30
2019-04-03T21:24:38.152Z,78.50
2019-04-03T21:27:09.425Z,77.70
2019-04-03T21:29:40.384Z,79.00
2019-04-03T21:32:11.179Z,79.80
2019-04-03T21:34:42.927Z,77.70
2019-04-03T21:37:14.210Z,77.50
2019-04-03T21:39:45.394Z,79.60
2019-04-03T21:42:16.296Z,79.40
2019-04-03T21:44:47.104Z,79.90
2019-04-03T21:47:18.068Z,78.80
2019-04-03T21:49:49.186Z,78.30
2019-04-03T21:52:20.941Z,77.20
2019-04-03T21:54:52.825Z,79.30
2019-04-03T21:57:23.900Z,79.70
2019-04-03T21:59:54.716Z,80.10
2019-04-03T22:02:25.577Z,77.40
2019-04-03T22:04:56.546Z,77.90
2019-04-03T22:07:28.564Z,79.10
2019-04-03T22:10:01.940Z,80.50
2019-04-03T22:12:34.839Z,79.50
2019-04-03T22:15:08.392Z,78.00
2019-04-03T22:17:39.287Z,79.20
2019-04-03T22:20:10.436Z,76.90
2019-04-03T22:22:41.478Z,78.00
2019-04-03T22:25:12.594Z,77.40
2019-04-03T22:27:43.718Z,79.60
2019-04-03T22:30:19.988Z,79.70
2019-04-03T22:32:51.456Z,77.10
2019-04-03T22:35:22.991Z,78.60
2019-04-03T22:37:53.765Z,77.80
2019-04-03T22:40:24.577Z,80.40
2019-04-03T22:42:55.517Z,80.80
2019-04-03T22:45:26.528Z,77.90
2019-04-03T22:47:57.513Z,76.60
2019-04-03T22:50:28.571Z,78.30
2019-04-03T22:53:00.651Z,77.40
2019-04-03T22:55:32.365Z,78.80
2019-04-03T22:58:03.549Z,81.00
2019-04-03T23:00:34.663Z,78.00
2019-04-03T23:12:46.875Z,81.00
2019-04-03T23:15:17.795Z,80.30
2019-04-03T23:17:48.762Z,79.00
2019-04-03T23:20:20.080Z,78.80
2019-04-03T23:22:53.132Z,78.80
2019-04-03T23:25:24.057Z,78.20
2019-04-03T23:27:57.976Z,78.50
2019-04-03T23:30:30.218Z,79.60
2019-04-03T23:33:01.441Z,79.30
2019-04-03T23:35:32.438Z,80.70
2019-04-03T23:38:03.603Z,81.80
2019-04-03T23:40:34.628Z,79.90
2019-04-03T23:43:08.527Z,81.00
2019-04-03T23:45:38.651Z,80.20
2019-04-03T23:48:09.883Z,80.60
2019-04-03T23:50:40.754Z,81.70
2019-04-03T23:53:11.673Z,81.90
2019-04-03T23:55:42.515Z,80.80
2019-04-03T23:58:13.443Z,80.20
